Time;durP1;ratioP1;P1;durP2;ratioP2;P2;SDS_P1;SDS_P2;PMS_P1;PMS_P2;Temp;Humidity;BMP_temperature;BMP_pressure;BME280_temperature;BME280_humidity;BME280_pressure;Samples;Min_cycle;Max_cycle;Signal;HPM_P1;HPM_P2
2023/04/14 00:01:36;;;;;;;0.50;0.40;;;6.60;99.90;;;;;;5039114;28;20219;-80
2023/04/14 00:04:03;;;;;;;0.50;0.40;;;6.50;99.90;;;;;;5038425;28;20220;-79
2023/04/14 00:06:30;;;;;;;0.50;0.50;;;6.60;99.90;;;;;;5037939;28;20240;-80
2023/04/14 00:08:57;;;;;;;0.50;0.50;;;6.70;99.90;;;;;;5038618;28;20176;-79
2023/04/14 00:11:26;;;;;;;0.50;0.40;;;6.70;99.90;;;;;;5039165;28;20785;-80
2023/04/14 00:13:54;;;;;;;0.50;0.40;;;6.80;99.90;;;;;;5038425;28;20180;-79
2023/04/14 00:16:21;;;;;;;0.50;0.40;;;6.80;99.90;;;;;;5037597;28;20196;-79
2023/04/14 00:18:48;;;;;;;0.88;0.88;;;6.70;99.90;;;;;;5039029;28;20176;-80
2023/04/14 00:21:15;;;;;;;0.50;0.40;;;6.70;99.90;;;;;;5038203;28;20238;-80
2023/04/14 00:23:42;;;;;;;0.75;0.75;;;6.70;99.90;;;;;;5037267;28;20172;-78
2023/04/14 00:26:08;;;;;;;0.50;0.40;;;6.70;99.90;;;;;;5037166;28;20222;-77
2023/04/14 00:28:37;;;;;;;0.50;0.40;;;6.70;99.90;;;;;;5038369;28;20172;-79
2023/04/14 00:31:03;;;;;;;0.50;0.40;;;6.70;99.90;;;;;;5037824;28;20307;-80
2023/04/14 00:33:30;;;;;;;0.50;0.40;;;6.70;99.90;;;;;;5037718;28;20171;-80
2023/04/14 00:35:57;;;;;;;0.50;0.40;;;6.70;99.90;;;;;;5037872;28;20181;-80
2023/04/14 00:38:24;;;;;;;0.50;0.40;;;6.50;99.90;;;;;;5038225;28;20214;-80
2023/04/14 00:40:51;;;;;;;0.50;0.40;;;6.40;99.90;;;;;;5037823;28;20224;-80
2023/04/14 00:43:18;;;;;;;0.50;0.40;;;6.30;99.90;;;;;;5025005;28;20223;-80
2023/04/14 00:45:49;;;;;;;0.50;0.40;;;6.40;99.90;;;;;;5018023;28;20196;-80
2023/04/14 00:48:16;;;;;;;0.50;0.40;;;6.40;99.90;;;;;;5017925;28;20202;-80
2023/04/14 00:50:43;;;;;;;0.50;0.40;;;6.30;99.90;;;;;;5017379;28;20234;-77
2023/04/14 00:53:11;;;;;;;0.50;0.40;;;6.30;99.90;;;;;;5017972;28;20195;-80
2023/04/14 00:55:39;;;;;;;0.50;0.40;;;6.20;99.90;;;;;;5017886;28;20192;-81
2023/04/14 00:58:06;;;;;;;0.75;0.70;;;6.30;99.90;;;;;;5019937;28;20287;-79
2023/04/14 01:00:35;;;;;;;0.50;0.40;;;6.30;99.90;;;;;;5012798;28;20216;-79
2023/04/14 01:03:03;;;;;;;0.50;0.40;;;6.40;99.90;;;;;;5020734;28;20238;-80
2023/04/14 01:05:30;;;;;;;0.50;0.40;;;6.50;99.90;;;;;;5017586;28;20204;-80
2023/04/14 01:07:57;;;;;;;0.50;0.40;;;6.40;99.90;;;;;;5018363;28;20263;-79
2023/04/14 01:10:27;;;;;;;0.50;0.40;;;6.40;99.90;;;;;;5017825;28;20310;-80
2023/04/14 01:13:15;;;;;;;0.50;0.45;;;6.50;99.90;;;;;;5018057;28;20279;-80
2023/04/14 01:15:48;;;;;;;0.50;0.50;;;6.40;99.90;;;;;;5011583;28;20278;-80
2023/04/14 01:18:26;;;;;;;3.10;0.93;;;6.40;99.90;;;;;;5017963;28;20283;-79
2023/04/14 01:20:59;;;;;;;0.50;0.40;;;6.50;99.90;;;;;;5018433;28;20283;-79
2023/04/14 01:23:27;;;;;;;0.50;0.40;;;6.50;99.90;;;;;;5017558;28;20231;-80
2023/04/14 01:26:18;;;;;;;0.50;0.40;;;6.50;99.90;;;;;;5017438;28;20290;-79
2023/04/14 01:29:26;;;;;;;0.50;0.40;;;6.50;99.90;;;;;;5018055;28;20188;-80
2023/04/14 01:32:02;;;;;;;0.50;0.40;;;6.30;99.90;;;;;;5011384;28;20762;-79
2023/04/14 01:34:34;;;;;;;0.50;0.40;;;6.30;99.90;;;;;;5017511;28;20305;-80
2023/04/14 01:37:06;;;;;;;0.50;0.40;;;6.20;99.90;;;;;;5017459;28;20220;-80
2023/04/14 01:39:37;;;;;;;0.60;0.60;;;6.20;99.90;;;;;;5017718;28;20196;-79
2023/04/14 01:42:08;;;;;;;0.50;0.40;;;6.20;99.90;;;;;;5018101;28;20307;-80
2023/04/14 01:44:36;;;;;;;0.50;0.40;;;6.20;99.90;;;;;;5017591;28;20222;-80
2023/04/14 01:47:08;;;;;;;0.50;0.40;;;6.10;99.90;;;;;;5017621;28;20192;-80
2023/04/14 01:49:38;;;;;;;0.80;0.50;;;6.00;99.90;;;;;;5009983;28;20194;-80
2023/04/14 01:52:09;;;;;;;0.50;0.40;;;6.10;99.90;;;;;;5017802;28;20637;-79
2023/04/14 01:54:38;;;;;;;0.50;0.40;;;6.00;99.90;;;;;;5016899;28;20196;-80
2023/04/14 01:57:07;;;;;;;0.50;0.40;;;6.00;99.90;;;;;;5016368;28;20258;-80
2023/04/14 01:59:35;;;;;;;0.50;0.40;;;6.00;99.90;;;;;;5016282;28;20218;-80
2023/04/14 02:02:04;;;;;;;0.50;0.40;;;6.00;99.90;;;;;;5016288;28;20224;-80
2023/04/14 02:04:33;;;;;;;0.50;0.40;;;6.00;99.90;;;;;;5015691;28;20219;-80
2023/04/14 02:07:04;;;;;;;0.50;0.40;;;5.90;99.90;;;;;;5016937;28;20204;-80
2023/04/14 02:09:31;;;;;;;0.50;0.40;;;5.80;99.90;;;;;;5016256;28;21548;-80
2023/04/14 02:11:59;;;;;;;0.50;0.40;;;5.90;99.90;;;;;;5016147;28;20219;-80
2023/04/14 02:14:27;;;;;;;0.50;0.40;;;5.90;99.90;;;;;;5015860;28;20268;-79
2023/04/14 02:16:56;;;;;;;0.50;0.40;;;5.80;99.90;;;;;;5016131;28;20206;-79
2023/04/14 02:19:25;;;;;;;0.60;0.50;;;5.80;99.90;;;;;;5016263;28;20203;-80
2023/04/14 02:21:54;;;;;;;0.50;0.40;;;5.80;99.90;;;;;;5015474;28;20303;-80
2023/04/14 02:24:22;;;;;;;0.50;0.40;;;5.70;99.90;;;;;;5015370;28;20663;-80
2023/04/14 02:26:58;;;;;;;0.50;0.40;;;5.70;99.90;;;;;;5014931;28;20256;-80
2023/04/14 02:29:28;;;;;;;0.50;0.40;;;5.70;99.90;;;;;;5015229;28;20234;-80
2023/04/14 02:31:59;;;;;;;0.50;0.40;;;5.70;99.90;;;;;;5014884;28;20299;-79
2023/04/14 02:34:30;;;;;;;0.50;0.40;;;5.80;99.90;;;;;;5015095;28;20651;-80
2023/04/14 02:37:02;;;;;;;0.50;0.40;;;5.90;99.90;;;;;;5015208;28;20206;-80
2023/04/14 02:39:31;;;;;;;0.50;0.40;;;5.90;99.90;;;;;;5015075;28;20688;-80
2023/04/14 02:42:04;;;;;;;0.50;0.40;;;5.90;99.90;;;;;;5015646;28;20234;-80
2023/04/14 02:44:35;;;;;;;0.50;0.40;;;5.90;99.90;;;;;;5017267;28;20200;-80
2023/04/14 02:47:06;;;;;;;1.63;1.52;;;6.00;99.90;;;;;;5030995;23;20226;-78
2023/04/14 02:49:36;;;;;;;0.50;0.40;;;6.10;99.90;;;;;;5009515;28;20701;-78
2023/04/14 02:52:05;;;;;;;0.50;0.40;;;6.10;99.90;;;;;;5013583;28;20192;-78
2023/04/14 02:54:34;;;;;;;0.50;0.50;;;6.10;99.90;;;;;;5005662;28;20201;-79
2023/04/14 02:57:02;;;;;;;0.50;0.40;;;6.20;99.90;;;;;;5017642;28;20214;-80
2023/04/14 02:59:31;;;;;;;0.50;0.40;;;6.20;99.90;;;;;;5009251;28;20200;-80
2023/04/14 03:02:01;;;;;;;0.60;0.50;;;6.10;99.90;;;;;;5018537;28;20204;-80
2023/04/14 03:04:31;;;;;;;0.50;0.40;;;6.10;99.90;;;;;;5018588;28;20216;-80
2023/04/14 03:07:00;;;;;;;0.50;0.40;;;6.10;99.90;;;;;;5018615;28;20553;-80
2023/04/14 03:09:30;;;;;;;0.50;0.40;;;6.00;99.90;;;;;;5018029;28;20290;-81
2023/04/14 03:11:58;;;;;;;0.50;0.40;;;5.90;99.90;;;;;;5018703;28;20291;-80
2023/04/14 03:14:26;;;;;;;0.50;0.40;;;5.80;99.90;;;;;;5018602;28;20199;-80
2023/04/14 03:16:54;;;;;;;0.50;0.40;;;5.80;99.90;;;;;;5017720;28;20207;-78
2023/04/14 03:19:23;;;;;;;0.50;0.40;;;5.80;99.90;;;;;;5018566;28;20230;-80
2023/04/14 03:21:50;;;;;;;0.50;0.40;;;5.80;99.90;;;;;;5018611;28;20286;-80
2023/04/14 03:24:23;;;;;;;0.50;0.40;;;5.70;99.90;;;;;;5018718;28;20406;-80
2023/04/14 03:26:54;;;;;;;0.50;0.40;;;5.70;99.90;;;;;;5018327;28;20815;-80
2023/04/14 03:29:25;;;;;;;0.50;0.40;;;5.70;99.90;;;;;;5018146;28;20693;-80
2023/04/14 03:31:54;;;;;;;0.50;0.40;;;5.50;99.90;;;;;;5018705;28;20223;-79
2023/04/14 03:34:24;;;;;;;0.50;0.40;;;5.40;99.90;;;;;;5018424;28;20211;-80
2023/04/14 03:36:54;;;;;;;0.50;0.40;;;5.30;99.90;;;;;;5017888;28;20223;-80
2023/04/14 03:39:23;;;;;;;0.50;0.40;;;5.30;99.90;;;;;;5017561;28;20237;-80
2023/04/14 03:41:53;;;;;;;0.50;0.40;;;5.20;99.90;;;;;;5018167;28;20268;-80
2023/04/14 03:44:21;;;;;;;0.50;0.40;;;5.30;99.90;;;;;;5017962;28;20705;-80
2023/04/14 03:46:49;;;;;;;0.50;0.40;;;5.30;99.90;;;;;;5017963;28;20262;-80
2023/04/14 03:49:18;;;;;;;0.50;0.40;;;5.30;99.90;;;;;;5017884;28;20563;-80
2023/04/14 03:51:47;;;;;;;0.60;0.60;;;5.30;99.90;;;;;;5002538;28;20203;-80
2023/04/14 03:54:16;;;;;;;0.70;0.68;;;5.30;99.90;;;;;;5018791;28;20192;-80
2023/04/14 03:56:46;;;;;;;0.60;0.60;;;5.40;99.90;;;;;;5009517;28;20192;-80
2023/04/14 03:59:17;;;;;;;0.50;0.40;;;5.50;99.90;;;;;;5017926;28;20663;-80
2023/04/14 04:01:46;;;;;;;0.50;0.40;;;5.60;99.90;;;;;;5001996;28;20670;-80
2023/04/14 04:04:13;;;;;;;0.50;0.40;;;5.60;99.90;;;;;;5018150;28;20574;-81
2023/04/14 04:06:40;;;;;;;0.50;0.40;;;5.50;99.90;;;;;;5015569;28;20200;-80
2023/04/14 04:09:09;;;;;;;0.70;0.70;;;5.50;99.90;;;;;;5017518;28;20291;-80
2023/04/14 04:11:38;;;;;;;0.95;0.95;;;5.50;99.90;;;;;;5017549;28;20210;-80
2023/04/14 04:14:06;;;;;;;0.50;0.40;;;5.60;99.90;;;;;;5017670;28;20283;-79
2023/04/14 04:16:38;;;;;;;0.50;0.40;;;5.60;99.90;;;;;;5017388;28;20199;-80
2023/04/14 04:19:06;;;;;;;0.50;0.40;;;5.50;99.90;;;;;;5017322;28;20738;-80
2023/04/14 04:21:36;;;;;;;0.50;0.40;;;5.50;99.90;;;;;;5018007;28;20200;-80
2023/04/14 04:24:06;;;;;;;0.50;0.40;;;5.40;99.90;;;;;;5016899;28;20216;-80
2023/04/14 04:26:34;;;;;;;0.88;0.88;;;5.30;99.90;;;;;;5016934;28;20290;-80
2023/04/14 04:29:02;;;;;;;1.27;1.17;;;5.30;99.90;;;;;;5017058;28;20227;-79
2023/04/14 04:31:31;;;;;;;0.50;0.40;;;5.30;99.90;;;;;;5017730;28;20206;-79
2023/04/14 04:33:59;;;;;;;0.85;0.85;;;5.20;99.90;;;;;;5017155;28;20206;-79
2023/04/14 04:36:27;;;;;;;0.50;0.40;;;5.10;99.90;;;;;;5017195;28;20212;-80
2023/04/14 04:38:54;;;;;;;0.50;0.40;;;5.10;99.90;;;;;;5017977;28;20287;-80
2023/04/14 04:41:22;;;;;;;0.60;0.50;;;5.10;99.90;;;;;;5016898;28;20242;-78
2023/04/14 04:43:49;;;;;;;0.50;0.40;;;5.20;99.90;;;;;;5016747;28;20306;-79
2023/04/14 04:46:37;;;;;;;0.50;0.40;;;5.20;99.90;;;;;;5008428;28;20272;-79
2023/04/14 04:49:06;;;;;;;0.50;0.40;;;5.10;99.90;;;;;;5005046;28;20262;-80
2023/04/14 04:51:32;;;;;;;0.50;0.40;;;5.20;99.90;;;;;;5016529;28;20283;-79
2023/04/14 04:53:59;;;;;;;0.50;0.40;;;5.20;99.90;;;;;;5015464;28;20201;-77
2023/04/14 04:56:26;;;;;;;0.50;0.40;;;5.20;99.90;;;;;;5013626;28;20294;-79
2023/04/14 04:58:53;;;;;;;0.50;0.40;;;5.10;99.90;;;;;;5008280;28;20595;-79
2023/04/14 05:01:20;;;;;;;0.50;0.40;;;5.10;99.90;;;;;;5015190;28;20227;-78
2023/04/14 05:03:47;;;;;;;0.50;0.40;;;5.00;99.90;;;;;;4998611;28;20230;-80
2023/04/14 05:06:15;;;;;;;0.50;0.40;;;5.00;99.90;;;;;;5014213;28;20267;-80
2023/04/14 05:08:42;;;;;;;0.50;0.40;;;5.00;99.90;;;;;;5007228;28;20246;-79
2023/04/14 05:11:09;;;;;;;0.50;0.40;;;5.10;99.90;;;;;;5015346;28;20283;-79
2023/04/14 05:13:36;;;;;;;0.50;0.50;;;5.00;99.90;;;;;;5007417;28;20576;-80
2023/04/14 05:16:04;;;;;;;0.80;0.68;;;5.00;99.90;;;;;;5009675;28;20292;-78
2023/04/14 05:18:31;;;;;;;0.50;0.40;;;5.00;99.90;;;;;;5003972;28;20220;-80
2023/04/14 05:21:02;;;;;;;0.50;0.40;;;5.10;99.90;;;;;;5015449;28;20200;-79
2023/04/14 05:23:32;;;;;;;0.50;0.40;;;5.10;99.90;;;;;;5015429;28;20215;-79
2023/04/14 05:25:59;;;;;;;0.50;0.40;;;5.20;99.90;;;;;;5015833;28;20200;-79
2023/04/14 05:28:27;;;;;;;3.53;1.25;;;5.20;99.90;;;;;;5016064;28;20236;-80
2023/04/14 05:30:54;;;;;;;0.50;0.50;;;5.20;99.90;;;;;;5015960;28;20287;-79
2023/04/14 05:33:21;;;;;;;0.60;0.60;;;5.30;99.90;;;;;;5000543;28;20287;-79
2023/04/14 05:35:49;;;;;;;0.50;0.40;;;5.40;99.90;;;;;;5013977;28;20200;-79
2023/04/14 05:38:17;;;;;;;0.50;0.40;;;5.50;99.90;;;;;;5015333;28;20216;-78
2023/04/14 05:40:46;;;;;;;0.50;0.40;;;5.60;99.90;;;;;;5015887;28;20566;-79
2023/04/14 05:43:13;;;;;;;0.50;0.40;;;5.80;99.90;;;;;;5016289;28;20220;-79
2023/04/14 05:45:40;;;;;;;0.50;0.50;;;6.10;99.90;;;;;;5012998;28;20199;-79
2023/04/14 05:48:07;;;;;;;0.50;0.50;;;6.40;99.90;;;;;;5014858;28;20230;-79
2023/04/14 05:50:36;;;;;;;9.88;3.40;;;6.70;99.90;;;;;;5013690;28;20206;-79
2023/04/14 05:53:03;;;;;;;3.05;1.50;;;7.00;99.90;;;;;;5015114;28;20222;-78
2023/04/14 05:55:31;;;;;;;0.50;0.40;;;7.20;99.90;;;;;;5016230;28;20214;-78
2023/04/14 05:57:59;;;;;;;1.00;0.90;;;7.60;99.90;;;;;;5016140;28;20230;-79
2023/04/14 06:00:26;;;;;;;1.15;1.05;;;8.10;99.90;;;;;;5015714;28;20208;-80
2023/04/14 06:02:53;;;;;;;0.95;0.95;;;8.30;99.90;;;;;;5016129;28;20200;-79
2023/04/14 06:05:20;;;;;;;0.50;0.45;;;8.70;99.90;;;;;;5016361;28;20231;-77
2023/04/14 06:07:47;;;;;;;0.50;0.40;;;9.80;99.90;;;;;;5012395;28;20235;-78
2023/04/14 06:10:13;;;;;;;0.50;0.40;;;11.30;99.90;;;;;;5012739;28;20642;-78
2023/04/14 06:12:40;;;;;;;0.50;0.40;;;12.60;99.90;;;;;;5015700;28;20288;-79
2023/04/14 06:15:09;;;;;;;0.50;0.40;;;13.80;99.90;;;;;;5015667;28;20386;-80
2023/04/14 06:17:36;;;;;;;0.50;0.40;;;14.90;99.90;;;;;;5014975;28;20546;-80
2023/04/14 06:20:03;;;;;;;0.50;0.40;;;16.10;99.90;;;;;;5006060;28;20531;-77
2023/04/14 06:22:31;;;;;;;0.50;0.33;;;17.00;93.50;;;;;;5012197;28;20554;-79
2023/04/14 06:24:58;;;;;;;6.17;1.87;;;17.30;89.60;;;;;;5008514;28;20474;-78
2023/04/14 06:27:25;;;;;;;0.63;0.60;;;17.70;83.70;;;;;;5011558;28;20466;-77
2023/04/14 06:29:52;;;;;;;0.50;0.33;;;17.70;81.80;;;;;;5000924;28;20443;-78
2023/04/14 06:32:21;;;;;;;0.50;0.30;;;18.00;81.80;;;;;;5020593;28;20439;-79
2023/04/14 06:34:48;;;;;;;0.50;0.40;;;18.30;78.70;;;;;;5018208;28;20435;-78
2023/04/14 06:37:15;;;;;;;0.50;0.40;;;19.00;78.50;;;;;;5018256;28;20517;-77
2023/04/14 06:39:42;;;;;;;0.50;0.40;;;19.80;74.50;;;;;;5020245;28;20497;-79
2023/04/14 06:42:11;;;;;;;0.90;0.70;;;20.10;70.50;;;;;;5019217;28;20496;-78
2023/04/14 06:44:39;;;;;;;0.50;0.40;;;20.40;69.40;;;;;;5017700;28;20474;-78
2023/04/14 06:47:06;;;;;;;0.50;0.30;;;20.40;68.10;;;;;;5011950;28;20451;-79
2023/04/14 06:49:35;;;;;;;0.70;0.50;;;20.70;65.80;;;;;;5025083;28;20542;-78
2023/04/14 06:52:02;;;;;;;0.50;0.40;;;21.00;65.10;;;;;;5019457;28;20451;-80
2023/04/14 06:54:31;;;;;;;0.63;0.63;;;20.40;65.50;;;;;;5021322;28;20434;-79
2023/04/14 06:56:58;;;;;;;1.40;0.57;;;20.20;64.10;;;;;;5023192;28;20561;-79
2023/04/14 06:59:28;;;;;;;1.77;1.33;;;19.70;64.60;;;;;;5020386;28;20517;-78
2023/04/14 07:01:55;;;;;;;0.90;0.90;;;18.70;65.60;;;;;;5006292;28;20443;-79
2023/04/14 07:04:22;;;;;;;1.37;0.83;;;18.30;67.20;;;;;;5021025;28;21080;-79
2023/04/14 07:06:50;;;;;;;0.63;0.57;;;17.10;69.00;;;;;;5020802;28;20459;-80
2023/04/14 07:09:18;;;;;;;0.50;0.30;;;16.90;71.20;;;;;;5015504;28;20454;-80
2023/04/14 07:11:45;;;;;;;0.93;0.83;;;17.50;73.30;;;;;;5024076;28;20486;-79
2023/04/14 07:14:12;;;;;;;2.20;0.40;;;18.60;70.80;;;;;;5008503;28;20803;-80
2023/04/14 07:16:39;;;;;;;0.50;0.30;;;19.80;70.00;;;;;;5007718;28;20515;-80
2023/04/14 07:19:06;;;;;;;0.50;0.40;;;20.50;65.80;;;;;;5012325;28;20462;-81
2023/04/14 07:21:32;;;;;;;1.13;1.07;;;21.20;64.30;;;;;;5018734;28;20477;-79
2023/04/14 07:24:01;;;;;;;1.53;0.80;;;21.00;61.20;;;;;;5012263;28;20569;-77
2023/04/14 07:26:27;;;;;;;0.50;0.40;;;20.80;62.00;;;;;;5020339;28;20439;-80
2023/04/14 07:28:55;;;;;;;0.50;0.40;;;21.40;61.80;;;;;;5022418;28;20529;-79
2023/04/14 07:31:22;;;;;;;5.10;0.77;;;21.80;60.20;;;;;;5017263;28;20529;-80
2023/04/14 07:33:50;;;;;;;0.50;0.40;;;21.50;59.80;;;;;;5017446;28;20537;-79
2023/04/14 07:36:17;;;;;;;0.50;0.40;;;21.40;60.90;;;;;;5017103;28;20439;-80
2023/04/14 07:38:44;;;;;;;0.50;0.30;;;21.70;60.50;;;;;;5008807;28;20473;-79
2023/04/14 07:41:12;;;;;;;0.50;0.40;;;22.30;60.00;;;;;;5016379;28;20477;-79
2023/04/14 07:43:39;;;;;;;0.50;0.30;;;22.10;59.00;;;;;;5016097;28;20756;-80
2023/04/14 07:46:07;;;;;;;0.93;0.77;;;22.40;58.60;;;;;;5017097;28;20461;-78
2023/04/14 07:48:35;;;;;;;0.50;0.40;;;22.70;57.90;;;;;;5016208;28;20506;-79
2023/04/14 07:51:03;;;;;;;3.50;1.60;;;22.30;58.40;;;;;;5016731;28;20533;-79
2023/04/14 07:53:30;;;;;;;0.50;0.40;;;21.70;58.50;;;;;;5008662;28;20455;-79
2023/04/14 07:55:57;;;;;;;0.50;0.30;;;21.80;60.10;;;;;;4998193;28;20452;-79
2023/04/14 07:58:26;;;;;;;0.50;0.50;;;22.20;58.50;;;;;;4996745;28;20558;-79
2023/04/14 08:00:53;;;;;;;0.77;0.77;;;22.30;58.50;;;;;;5012580;28;20475;-79
2023/04/14 08:03:20;;;;;;;5.70;0.87;;;22.50;57.50;;;;;;5011220;28;20454;-79
2023/04/14 08:05:47;;;;;;;0.50;0.30;;;21.40;57.70;;;;;;5016104;28;20459;-79
2023/04/14 08:08:14;;;;;;;0.50;0.40;;;21.80;61.00;;;;;;5016597;28;20470;-79
2023/04/14 08:10:41;;;;;;;0.50;0.30;;;23.20;59.40;;;;;;5018501;28;20947;-80
2023/04/14 08:13:08;;;;;;;0.70;0.50;;;24.20;57.20;;;;;;5011959;28;20502;-80
2023/04/14 08:15:36;;;;;;;0.50;0.30;;;24.90;55.40;;;;;;5004901;28;20450;-79
2023/04/14 08:18:03;;;;;;;0.50;0.40;;;24.80;55.30;;;;;;5015991;28;20466;-80
2023/04/14 08:20:30;;;;;;;0.50;0.30;;;25.30;54.20;;;;;;5000656;28;20835;-80
2023/04/14 08:22:57;;;;;;;0.50;0.30;;;26.10;54.30;;;;;;5008423;28;20859;-80
2023/04/14 08:25:25;;;;;;;0.50;0.40;;;25.90;51.50;;;;;;5016926;28;20554;-79
2023/04/14 08:27:51;;;;;;;0.50;0.30;;;25.30;51.40;;;;;;5008495;28;20463;-79
2023/04/14 08:30:18;;;;;;;0.50;0.33;;;25.90;52.30;;;;;;5016672;28;20533;-80
2023/04/14 08:32:46;;;;;;;0.50;0.30;;;26.10;52.50;;;;;;5015504;28;20462;-80
2023/04/14 08:35:13;;;;;;;0.50;0.30;;;26.70;50.80;;;;;;5005315;28;20544;-79
2023/04/14 08:37:40;;;;;;;0.50;0.30;;;27.30;49.30;;;;;;5005467;28;20466;-79
2023/04/14 08:40:10;;;;;;;0.50;0.30;;;25.80;48.30;;;;;;5016254;28;20542;-80
2023/04/14 08:42:37;;;;;;;0.50;0.30;;;25.90;50.10;;;;;;5015056;28;20446;-79
2023/04/14 08:45:05;;;;;;;0.50;0.30;;;25.20;50.20;;;;;;5000390;28;20501;-78
2023/04/14 08:47:35;;;;;;;0.50;0.30;;;26.40;51.70;;;;;;5007486;28;20515;-79
2023/04/14 08:50:06;;;;;;;0.50;0.30;;;26.70;47.70;;;;;;4999932;28;20510;-80
2023/04/14 08:52:35;;;;;;;1.03;0.93;;;27.30;48.70;;;;;;5014532;28;20473;-80
2023/04/14 08:55:03;;;;;;;0.50;0.30;;;27.00;48.30;;;;;;5003340;28;20890;-79
2023/04/14 08:57:32;;;;;;;0.50;0.30;;;26.90;48.90;;;;;;4995228;28;20993;-80
2023/04/14 09:00:03;;;;;;;0.50;0.30;;;27.30;47.90;;;;;;5007023;28;20439;-79
2023/04/14 09:02:30;;;;;;;0.50;0.30;;;27.90;48.80;;;;;;4998940;28;20943;-80
2023/04/14 09:04:58;;;;;;;0.50;0.30;;;28.40;48.60;;;;;;5013878;28;20461;-79
2023/04/14 09:07:27;;;;;;;0.50;0.30;;;29.20;46.90;;;;;;5013195;28;20473;-80
2023/04/14 09:09:55;;;;;;;0.50;0.40;;;27.20;44.50;;;;;;5013771;28;20534;-78
2023/04/14 09:12:24;;;;;;;0.60;0.47;;;26.70;45.30;;;;;;5014367;28;20467;-79
2023/04/14 09:14:53;;;;;;;5.20;1.23;;;26.30;45.90;;;;;;5011959;28;20505;-79
2023/04/14 09:17:20;;;;;;;0.50;0.40;;;25.30;46.20;;;;;;5008116;28;20494;-79
2023/04/14 09:19:48;;;;;;;0.50;0.40;;;25.10;47.40;;;;;;5014154;28;20447;-80
2023/04/14 09:22:15;;;;;;;0.50;0.30;;;24.70;45.60;;;;;;5014691;28;20525;-80
2023/04/14 09:24:43;;;;;;;0.57;0.37;;;24.60;46.80;;;;;;5005175;28;20444;-80
2023/04/14 09:27:10;;;;;;;0.50;0.30;;;25.40;47.50;;;;;;5007337;28;20542;-79
2023/04/14 09:29:37;;;;;;;0.50;0.30;;;26.00;46.00;;;;;;5014629;28;20534;-80
2023/04/14 09:32:05;;;;;;;5.03;0.97;;;27.00;48.90;;;;;;5015428;28;20547;-80
2023/04/14 09:34:32;;;;;;;0.50;0.30;;;26.60;44.40;;;;;;4998507;28;20812;-80
2023/04/14 09:37:01;;;;;;;0.50;0.30;;;26.00;44.70;;;;;;5013442;28;20515;-79
2023/04/14 09:39:28;;;;;;;0.60;0.50;;;25.40;45.30;;;;;;5017429;28;20521;-80
2023/04/14 09:41:56;;;;;;;0.50;0.33;;;24.80;46.40;;;;;;5012634;28;20474;-79
2023/04/14 09:44:23;;;;;;;0.50;0.37;;;24.60;47.00;;;;;;4994284;28;20447;-80
2023/04/14 09:49:55;;;;;;;0.60;0.47;;;25.00;47.20;;;;;;5091079;28;20562;-79
2023/04/14 09:52:23;;;;;;;0.50;0.30;;;26.10;45.10;;;;;;5085740;28;20501;-79
2023/04/14 09:54:55;;;;;;;0.50;0.30;;;25.40;45.10;;;;;;5091389;28;20879;-79
2023/04/14 09:57:25;;;;;;;0.50;0.30;;;26.00;45.70;;;;;;5091493;28;20977;-79
2023/04/14 09:59:52;;;;;;;0.50;0.30;;;26.40;46.80;;;;;;5093378;28;20443;-79
2023/04/14 10:02:19;;;;;;;0.53;0.37;;;26.50;44.80;;;;;;5090872;28;20527;-79
2023/04/14 10:05:03;;;;;;;0.50;0.37;;;26.40;44.50;;;;;;5091610;28;20838;-80
2023/04/14 10:07:30;;;;;;;1.63;0.90;;;26.00;44.80;;;;;;5090467;28;20462;-78
2023/04/14 10:09:57;;;;;;;0.50;0.40;;;26.10;45.00;;;;;;5090668;28;20438;-79
2023/04/14 10:12:24;;;;;;;5.90;0.67;;;25.30;45.40;;;;;;5090556;28;20518;-78
2023/04/14 10:14:51;;;;;;;0.50;0.30;;;24.90;46.00;;;;;;5090522;28;20478;-78
2023/04/14 10:17:18;;;;;;;1.50;0.73;;;25.00;46.60;;;;;;5092476;28;20791;-78
2023/04/14 10:19:48;;;;;;;0.60;0.50;;;25.00;45.70;;;;;;5090846;28;20518;-79
2023/04/14 10:22:17;;;;;;;0.50;0.40;;;24.90;46.30;;;;;;5090255;28;20440;-79
2023/04/14 10:24:44;;;;;;;0.50;0.30;;;24.10;46.50;;;;;;5090426;28;20438;-78
2023/04/14 10:27:12;;;;;;;1.17;0.70;;;24.20;46.60;;;;;;5090394;28;20459;-78
2023/04/14 10:29:40;;;;;;;0.50;0.30;;;25.20;49.40;;;;;;5092847;28;20475;-79
2023/04/14 10:32:09;;;;;;;0.50;0.30;;;26.00;47.00;;;;;;5083187;28;20539;-79
2023/04/14 10:34:39;;;;;;;0.60;0.40;;;26.90;47.50;;;;;;5090919;28;20930;-79
2023/04/14 10:37:14;;;;;;;0.50;0.30;;;27.20;45.10;;;;;;5081896;28;20443;-79
2023/04/14 10:39:41;;;;;;;0.50;0.40;;;27.10;44.30;;;;;;5090022;28;20522;-79
2023/04/14 10:42:09;;;;;;;0.50;0.30;;;26.40;44.30;;;;;;5090470;28;20432;-79
2023/04/14 10:44:36;;;;;;;0.50;0.30;;;25.80;44.80;;;;;;5090096;28;20923;-79
2023/04/14 10:47:06;;;;;;;0.50;0.30;;;25.90;45.90;;;;;;5089327;28;20541;-79
2023/04/14 10:49:34;;;;;;;0.50;0.40;;;26.30;47.00;;;;;;5090288;28;20498;-79
2023/04/14 10:52:03;;;;;;;0.80;0.70;;;26.90;46.00;;;;;;5090084;28;21040;-79
2023/04/14 10:54:48;;;;;;;0.93;0.93;;;27.10;44.70;;;;;;5090829;28;20444;-79
2023/04/14 10:57:16;;;;;;;2.10;1.17;;;25.90;44.10;;;;;;5082174;28;20869;-79
2023/04/14 10:59:45;;;;;;;0.50;0.30;;;24.80;44.60;;;;;;5082909;28;20517;-79
2023/04/14 11:02:26;;;;;;;0.50;0.40;;;24.70;46.50;;;;;;5075498;28;20962;-79
2023/04/14 11:05:04;;;;;;;0.50;0.30;;;24.90;46.10;;;;;;5075315;28;20829;-79
2023/04/14 11:07:36;;;;;;;0.60;0.40;;;26.00;48.20;;;;;;5074910;28;20466;-79
2023/04/14 11:10:26;;;;;;;0.70;0.60;;;26.70;44.40;;;;;;5075657;28;20436;-78
2023/04/14 11:13:00;;;;;;;0.50;0.40;;;26.90;43.70;;;;;;5075648;28;20527;-78
2023/04/14 11:15:45;;;;;;;0.50;0.40;;;26.60;43.40;;;;;;5075097;28;20436;-78
2023/04/14 11:18:14;;;;;;;0.50;0.40;;;26.40;43.80;;;;;;5066843;28;20443;-78
2023/04/14 11:20:41;;;;;;;0.50;0.30;;;25.40;42.40;;;;;;5074463;28;20442;-78
2023/04/14 11:23:09;;;;;;;0.50;0.30;;;24.30;43.30;;;;;;5075082;28;20444;-78
2023/04/14 11:25:37;;;;;;;0.50;0.30;;;22.60;44.50;;;;;;5074032;28;20436;-78
2023/04/14 11:28:04;;;;;;;0.50;0.30;;;21.70;46.10;;;;;;5074262;28;20488;-78
2023/04/14 11:30:31;;;;;;;0.50;0.30;;;22.90;49.10;;;;;;5075212;28;20523;-79
2023/04/14 11:32:58;;;;;;;3.23;1.37;;;23.90;47.00;;;;;;5074757;28;20857;-79
2023/04/14 11:35:27;;;;;;;2.50;1.10;;;23.80;44.70;;;;;;5074432;28;20478;-78
2023/04/14 11:37:54;;;;;;;1.00;0.50;;;23.50;44.50;;;;;;5074444;28;20539;-78
2023/04/14 11:40:22;;;;;;;0.50;0.40;;;23.20;44.80;;;;;;5074624;28;20466;-80
2023/04/14 11:42:55;;;;;;;2.30;0.50;;;22.80;44.60;;;;;;5074352;28;20519;-79
2023/04/14 11:45:22;;;;;;;0.50;0.40;;;22.60;46.10;;;;;;5074111;28;20485;-79
2023/04/14 11:47:57;;;;;;;0.50;0.30;;;23.40;47.60;;;;;;5074045;28;20997;-78
2023/04/14 11:50:25;;;;;;;0.50;0.30;;;22.80;45.80;;;;;;5074033;28;20443;-78
2023/04/14 11:52:53;;;;;;;0.50;0.30;;;22.20;44.40;;;;;;5074003;28;20447;-78
2023/04/14 11:55:21;;;;;;;0.63;0.63;;;21.40;45.60;;;;;;5073648;28;20440;-78
2023/04/14 11:57:48;;;;;;;0.50;0.30;;;20.60;46.50;;;;;;5073590;28;20486;-77
2023/04/14 12:00:17;;;;;;;0.50;0.40;;;19.10;47.40;;;;;;5073799;28;20519;-78
2023/04/14 12:02:45;;;;;;;0.60;0.50;;;18.90;48.90;;;;;;5074100;28;20463;-79
2023/04/14 12:05:12;;;;;;;1.17;0.67;;;18.50;49.50;;;;;;5065492;28;20439;-78
2023/04/14 12:07:42;;;;;;;0.50;0.30;;;18.30;50.50;;;;;;5073385;28;20459;-79
2023/04/14 12:10:10;;;;;;;0.50;0.40;;;18.50;51.80;;;;;;5073432;28;20492;-78
2023/04/14 12:12:37;;;;;;;0.50;0.30;;;18.80;51.70;;;;;;5072128;28;20436;-79
2023/04/14 12:15:05;;;;;;;0.50;0.30;;;19.20;51.70;;;;;;5072754;28;20440;-77
2023/04/14 12:17:33;;;;;;;0.50;0.30;;;19.80;51.10;;;;;;5073804;28;20463;-78
2023/04/14 12:20:00;;;;;;;0.50;0.30;;;20.10;49.90;;;;;;5073766;28;20435;-78
2023/04/14 12:22:29;;;;;;;0.50;0.30;;;20.10;48.80;;;;;;5073375;28;21027;-79
2023/04/14 12:24:57;;;;;;;0.50;0.30;;;20.00;48.80;;;;;;5067301;28;20460;-79
2023/04/14 12:27:25;;;;;;;0.50;0.30;;;20.10;50.50;;;;;;5065623;28;20824;-78
2023/04/14 12:29:52;;;;;;;0.57;0.47;;;19.90;48.50;;;;;;5055899;28;20845;-78
2023/04/14 12:32:20;;;;;;;0.50;0.30;;;20.20;49.10;;;;;;5071597;28;20440;-78
2023/04/14 12:34:59;;;;;;;4.50;2.40;;;21.30;50.60;;;;;;5067696;28;20540;-79
2023/04/14 12:37:28;;;;;;;0.50;0.30;;;22.40;48.10;;;;;;5067603;28;20468;-79
2023/04/14 12:39:58;;;;;;;0.50;0.30;;;23.00;48.90;;;;;;5058073;28;20524;-79
2023/04/14 12:42:25;;;;;;;0.63;0.57;;;24.20;47.60;;;;;;5057490;28;20449;-80
2023/04/14 12:44:57;;;;;;;0.50;0.30;;;24.90;46.00;;;;;;5066048;28;20906;-79
2023/04/14 12:47:29;;;;;;;0.50;0.30;;;25.00;44.60;;;;;;5073706;28;20448;-80
2023/04/14 12:49:58;;;;;;;0.50;0.30;;;24.00;43.60;;;;;;5073410;28;20476;-78
2023/04/14 12:52:37;;;;;;;0.50;0.40;;;23.00;44.90;;;;;;5073086;28;20436;-78
2023/04/14 12:55:05;;;;;;;0.50;0.30;;;22.10;45.90;;;;;;5063017;28;20928;-78
2023/04/14 12:57:32;;;;;;;0.50;0.40;;;21.30;45.30;;;;;;5066157;28;20509;-77
2023/04/14 13:00:00;;;;;;;0.50;0.30;;;20.30;46.10;;;;;;5073155;28;20434;-78
2023/04/14 13:02:28;;;;;;;0.50;0.30;;;20.10;47.90;;;;;;5072888;28;20483;-79